CYYU

Details ICAO CYYU (YYU)
Name KAPUSKASING
Region Canada
Timezone America/Toronto (UTC-4.0)
Plans Departing 2
Arriving 0
Stats Elevation 743 ft / 226 m (AMSL)
Location 49.414166° -82.467431°
Runways 2
Magnetic Variation 9.915° W
Sunrise 2018-05-20 09:41:08 UTC / 2018-05-20 05:41:08 Local
Sunset 2018-05-21 01:14:31 UTC / 2018-05-20 21:14:31 Local
Advertisement - Login to hide

Runways

ID Width Length Bearing (true) Bearing (mag) Surface Threshold Offset Overrun Length
10 75 ft / 23 m 3,759 ft / 1,146 m 89.99° 99.91° Asphalt 200 ft / 61 m 0 ft / 0 m
17 100 ft / 30 m 5,542 ft / 1,689 m 156.13° 166.05° Asphalt 0 ft / 0 m 0 ft / 0 m
28 75 ft / 23 m 3,759 ft / 1,146 m 270.01° 279.93° Asphalt 0 ft / 0 m 0 ft / 0 m
35 100 ft / 30 m 5,542 ft / 1,689 m 336.14° 346.06° Asphalt 0 ft / 0 m 0 ft / 0 m

Map

Weather


0- 5 10 15 20 25 30 35+ Temperature / ° C

Clouds and Precipitation
Forecast for 2018-05-20 12:00 UTC. Updated an hour ago

Ground ~20,000 ft ~40,000 ft Winds

METAR

CYYU 201000Z 23003KT 15SM SKC M01/M01 A3010 RMK FROIN SLP205

TAF

TAF TAF CYYU 200738Z 2008/2020 36005KT P6SM FEW015 PROB30 2008/2009 11/2SM BR FM201100 24005KT P6SM SKC BECMG 2013/2015 24010G20KT FM201800 25010G20KT P6SM BKN100 RMK NXT FCST BY 201400Z

Frequencies

Tower 122.20 MHz MF
Warning: Do not use this data for real-world aviation or navigation. No guarantee of current accuracy is given.